Terminal Aerodrome Forecast
Issued by NWS

Home | Current Version | Previous Version | Text Only | Print | Product List | Glossary On
Versions: 1 2 3 4 5 6 7 8 9 10 11 12 13 14 15 16 17 18 19 20 21 22 23 24 25 26 27 28 29 30 31 32 33 34 35 36 37
000
FTUS43 KDTX 281400 AAA
TAFYIP
TAF AMD
KYIP 281404Z 2814/2912 36013G20KT P6SM BKN025 OVC060
     FM281700 36013G20KT P6SM SCT025 BKN040
     FM281800 33013G20KT P6SM BKN045
     FM282200 33010KT P6SM SCT050
     FM290600 27006KT P6SM SCT050 BKN120 OVC250=

USA.gov is the U.S. government's official web portal to all federal, state and local government web resources and services.